Skip Navigation Links
Home and Info
Weather Forecast
Mountsorrel Weather
Climate Reports
Fun Stuff
Storm Chasing Pictures
Weather Tools
Me Only!
Stormchaser Mountsorrel Leicester current Weather StormChaser Mountsorrel Leicester current Weather


30 August 2015 Climate report for Mountsorrel.

 

Mountsorrel Weather Climate values are an adverage reading taken during the hour before the one displayed.

The bottom value is the Mean or Total of all the values during the day.


TimeAir TempGround TempDew PointRH%RainSun MinutesWind RunWind HiWind Dir BarometerWxWxTxt
Aug 30 2015 11:00PM 14.4 11.3 12.9 90 --- --- 0 2 EWind direction 1016.4 Mostly Clouds Mostly Clouds
Aug 30 2015 10:00PM 15.0 13.1 13.2 89 --- --- 0 4 EWind direction 1016.9 Mostly Clouds Mostly Clouds
Aug 30 2015 9:00PM 15.8 13.5 13.5 86 --- --- 0 2 EWind direction 1016.8 Mostly Clouds Mostly Clouds
Aug 30 2015 8:00PM 16.8 16.1 14.1 84 --- 50 0 0 ---Wind direction 1017.1 Mostly Clouds Mostly Clouds
Aug 30 2015 7:00PM 17.3 18.4 13.7 79 --- 14 0 0 ---Wind direction 1017.0 Mostly Clouds Mostly Clouds
Aug 30 2015 6:00PM 17.6 21.9 13.9 79 --- --- 0 0 ---Wind direction 1017.0 Mostly Clouds Mostly Clouds
Aug 30 2015 5:00PM 17.3 20.9 13.9 80 --- --- 0 1 ---Wind direction 1017.2 Mostly Clouds Mostly Clouds
Aug 30 2015 4:00PM 17.4 20.6 14.3 81 0.4 --- 0 3 EWind direction 1017.3 Overcast Light Rain Overcast Light Rain
Aug 30 2015 3:00PM 18.0 19.9 13.2 73 0.4 --- 0 3 EWind direction 1017.8 Overcast Light Rain Overcast Light Rain
Aug 30 2015 2:00PM 18.6 23.5 11.8 64 --- --- 1 5 EWind direction 1017.6 Mostly Clouds Mostly Clouds
Aug 30 2015 1:00PM 18.2 24.0 11.6 65 --- --- 1 5 ENEWind direction 1017.5 Mostly Clouds Mostly Clouds
Aug 30 2015 12:00PM 17.6 24.0 11.2 66 --- --- 2 6 ENEWind direction 1017.7 Mostly Clouds Mostly Clouds
Aug 30 2015 11:00AM 16.7 23.2 11.3 70 --- --- 1 5 NEWind direction 1017.8 Mostly Clouds Mostly Clouds
Aug 30 2015 10:00AM 15.1 20.5 11.4 78 --- --- 1 4 NNWWind direction 1017.8 Mostly Clouds Mostly Clouds
Aug 30 2015 9:00AM 14.0 17.2 11.1 82 --- --- 0 4 NNWWind direction 1018.0 Mostly Clouds Mostly Clouds
Aug 30 2015 8:00AM 13.0 14.1 10.8 86 --- --- 0 2 NNWWind direction 1017.8 Mostly Clouds Mostly Clouds
Aug 30 2015 7:00AM 12.5 11.6 10.4 86 --- --- 0 2 NNWWind direction 1017.3 Mostly Clouds Mostly Clouds
Aug 30 2015 6:00AM 12.5 11.0 10.4 86 --- --- 0 2 NNWWind direction 1017.3 Mostly Clouds Mostly Clouds
Aug 30 2015 5:00AM 12.7 11.1 10.3 85 --- --- 0 2 NNWWind direction 1017.5 Mostly Clouds Mostly Clouds
Aug 30 2015 4:00AM 12.6 10.9 10.2 85 --- --- 0 3 NWWind direction 1017.5 Mostly Clouds Mostly Clouds
Aug 30 2015 3:00AM 12.7 11.2 10.1 84 --- --- 0 0 ---Wind direction 1017.6 Mostly Clouds Mostly Clouds
Aug 30 2015 2:00AM 13.0 11.9 10.0 81 --- --- 0 0 ---Wind direction 1017.7 Mostly Clouds Mostly Clouds
Aug 30 2015 1:00AM 13.1 11.1 9.8 80 --- --- 0 0 ---Wind direction 1018.1 Mostly Clouds Mostly Clouds
Totals 15.3 16.6 11.9 79 0.8 01:04 6    1017.4   








The Mountsorrel Weather Station is located in Mountsorrel which is just South of Loughborough and just North of Leicester in Leicestershire.
It is maintained by Stormchaser Stuart Robinson whose passion is for all type of weather but especially the more severe types of weather such as Hurricanes, Typhoon and Tornadoes.